createdAt,value
2022-11-13T00:01:21.198Z,16.20
2022-11-13T00:04:07.600Z,14.98
2022-11-13T00:06:58.884Z,16.10
2022-11-13T00:09:45.780Z,15.70
2022-11-13T00:12:32.357Z,10.85
2022-11-13T00:15:18.939Z,9.55
2022-11-13T00:18:05.428Z,11.43
2022-11-13T00:20:51.859Z,9.45
2022-11-13T00:23:38.312Z,12.27
2022-11-13T00:26:27.521Z,12.38
2022-11-13T00:29:14.089Z,9.15
2022-11-13T00:32:00.632Z,8.80
2022-11-13T00:34:48.383Z,8.38
2022-11-13T00:37:35.089Z,9.27
2022-11-13T00:40:21.714Z,10.57
2022-11-13T00:43:07.962Z,7.95
2022-11-13T00:45:54.509Z,10.30
2022-11-13T00:48:40.757Z,10.57
2022-11-13T00:51:27.343Z,8.90
2022-11-13T00:54:14.169Z,8.80
2022-11-13T00:57:00.255Z,6.75
2022-11-13T00:59:46.793Z,8.07
2022-11-13T01:02:33.440Z,6.65
2022-11-13T01:05:19.966Z,8.70
2022-11-13T01:08:06.799Z,6.15
2022-11-13T01:10:53.959Z,5.07
2022-11-13T01:13:41.510Z,6.63
2022-11-13T01:16:28.971Z,7.10
2022-11-13T01:19:15.644Z,6.00
2022-11-13T01:22:02.126Z,6.10
2022-11-13T01:24:48.896Z,7.68
2022-11-13T01:27:37.504Z,6.72
2022-11-13T01:30:24.335Z,6.55
2022-11-13T01:33:10.953Z,5.07
2022-11-13T01:36:02.300Z,4.38
2022-11-13T01:38:49.066Z,6.00
2022-11-13T01:41:35.602Z,6.65
2022-11-13T01:44:22.993Z,5.03
2022-11-13T01:47:09.585Z,5.03
2022-11-13T01:49:57.840Z,4.57
2022-11-13T01:52:44.656Z,4.72
2022-11-13T01:55:31.358Z,6.07
2022-11-13T01:58:17.637Z,5.20
2022-11-13T02:01:04.595Z,5.57
2022-11-13T02:03:51.049Z,4.63
2022-11-13T02:06:42.229Z,4.60
2022-11-13T02:09:31.751Z,7.57
2022-11-13T02:12:22.652Z,4.88
2022-11-13T02:15:09.627Z,6.68
2022-11-13T02:17:58.012Z,5.35
2022-11-13T02:20:51.857Z,5.38
2022-11-13T02:23:49.851Z,6.60
2022-11-13T02:26:38.389Z,9.48
2022-11-13T02:29:24.969Z,7.50
2022-11-13T02:32:11.185Z,9.13
2022-11-13T02:34:58.022Z,8.05
2022-11-13T02:37:44.729Z,8.75
2022-11-13T02:40:32.368Z,7.20
2022-11-13T02:43:18.700Z,6.22
2022-11-13T02:46:05.180Z,7.50
2022-11-13T02:48:51.784Z,6.05
2022-11-13T02:51:37.926Z,5.90
2022-11-13T02:54:24.472Z,5.25
2022-11-13T02:57:11.048Z,4.93
2022-11-13T02:59:57.323Z,4.60
2022-11-13T03:02:44.030Z,5.03
2022-11-13T03:05:30.072Z,4.53
2022-11-13T03:08:17.369Z,3.78
2022-11-13T03:11:09.276Z,4.68
2022-11-13T03:13:55.845Z,4.13
2022-11-13T03:16:42.306Z,5.72
2022-11-13T03:19:28.631Z,4.13
2022-11-13T03:22:15.391Z,4.20
2022-11-13T03:25:04.852Z,4.72
2022-11-13T03:27:53.912Z,5.47
2022-11-13T03:30:40.205Z,4.03
2022-11-13T03:33:26.863Z,4.90
2022-11-13T03:36:12.969Z,3.90
2022-11-13T03:39:00.342Z,3.75
2022-11-13T03:41:46.575Z,5.00
2022-11-13T03:44:32.687Z,3.78
2022-11-13T03:47:19.487Z,3.72
2022-11-13T03:50:06.558Z,4.30
2022-11-13T03:52:53.814Z,4.15
2022-11-13T03:55:40.544Z,3.88
2022-11-13T03:58:27.607Z,3.95
2022-11-13T04:01:14.602Z,4.40
2022-11-13T04:04:01.076Z,3.63
2022-11-13T04:06:47.337Z,3.72
2022-11-13T04:09:33.626Z,5.45
2022-11-13T04:12:20.118Z,5.15
2022-11-13T04:15:07.269Z,3.42
2022-11-13T04:17:53.867Z,5.05
2022-11-13T04:20:40.075Z,4.32
2022-11-13T04:23:26.300Z,3.58
2022-11-13T04:26:12.703Z,3.42
2022-11-13T04:28:59.596Z,4.47
2022-11-13T04:31:46.296Z,3.40
2022-11-13T04:34:32.737Z,4.35
2022-11-13T04:37:18.932Z,3.10
2022-11-13T04:40:06.477Z,3.55
2022-11-13T04:42:52.957Z,3.70
2022-11-13T04:45:39.502Z,3.70
2022-11-13T04:48:26.366Z,3.28
2022-11-13T04:51:13.515Z,4.05
2022-11-13T04:54:00.066Z,3.95
2022-11-13T04:56:46.320Z,4.50
2022-11-13T04:59:32.988Z,3.45
2022-11-13T05:02:19.726Z,4.20
2022-11-13T05:05:06.617Z,4.47
2022-11-13T05:07:53.826Z,3.60
2022-11-13T05:10:40.331Z,3.75
2022-11-13T05:13:27.515Z,3.40
2022-11-13T05:16:14.742Z,4.90
2022-11-13T05:19:01.107Z,2.85
2022-11-13T05:21:47.444Z,3.40
2022-11-13T05:24:34.014Z,3.53
2022-11-13T05:27:20.175Z,5.10
2022-11-13T05:30:07.599Z,3.28
2022-11-13T05:32:53.893Z,3.65
2022-11-13T05:35:40.301Z,3.05
2022-11-13T05:38:27.312Z,4.82
2022-11-13T05:41:19.557Z,3.30
2022-11-13T05:44:05.934Z,3.30
2022-11-13T05:46:52.547Z,3.20
2022-11-13T05:49:39.188Z,3.50
2022-11-13T05:52:25.556Z,2.90
2022-11-13T05:55:11.855Z,3.40
2022-11-13T05:57:59.866Z,2.95
2022-11-13T06:00:46.194Z,4.47
2022-11-13T06:03:33.165Z,3.45
2022-11-13T06:06:21.574Z,3.20
2022-11-13T06:09:08.455Z,4.72
2022-11-13T06:11:55.105Z,5.03
2022-11-13T06:14:41.871Z,2.75
2022-11-13T06:17:28.314Z,3.03
2022-11-13T06:20:15.221Z,3.03
2022-11-13T06:23:01.897Z,3.97
2022-11-13T06:25:48.221Z,2.60
2022-11-13T06:28:35.234Z,4.50
2022-11-13T06:31:27.134Z,3.13
2022-11-13T06:34:13.549Z,3.33
2022-11-13T06:37:01.762Z,2.83
2022-11-13T06:39:48.277Z,4.05
2022-11-13T06:42:34.944Z,3.08
2022-11-13T06:45:21.335Z,2.72
2022-11-13T06:48:07.839Z,3.03
2022-11-13T06:50:54.426Z,6.82
2022-11-13T06:53:40.807Z,4.28
2022-11-13T06:56:27.324Z,7.20
2022-11-13T06:59:13.811Z,3.50
2022-11-13T07:02:00.389Z,4.68
2022-11-13T07:04:46.627Z,3.22
2022-11-13T07:07:33.004Z,4.43
2022-11-13T07:10:19.778Z,3.38
2022-11-13T07:13:06.172Z,3.63
2022-11-13T07:15:52.740Z,3.20
2022-11-13T07:18:39.405Z,4.47
2022-11-13T07:21:25.908Z,5.53
2022-11-13T07:24:16.970Z,3.38
2022-11-13T07:27:03.655Z,4.60
2022-11-13T07:29:49.975Z,3.28
2022-11-13T07:32:36.429Z,3.65
2022-11-13T07:35:23.142Z,4.50
2022-11-13T07:38:09.805Z,3.75
2022-11-13T07:40:57.645Z,3.90
2022-11-13T07:43:44.002Z,2.55
2022-11-13T07:46:30.685Z,3.30
2022-11-13T07:49:17.284Z,2.88
2022-11-13T07:52:03.790Z,2.55
2022-11-13T07:54:50.168Z,5.50
2022-11-13T07:57:36.682Z,4.53
2022-11-13T08:00:23.452Z,2.78
2022-11-13T08:03:14.777Z,5.00
2022-11-13T08:06:05.999Z,4.28
2022-11-13T08:08:52.230Z,2.75
2022-11-13T08:11:38.947Z,2.63
2022-11-13T08:14:25.377Z,2.97
2022-11-13T08:17:11.621Z,3.08
2022-11-13T08:19:58.079Z,5.53
2022-11-13T08:22:44.301Z,10.38
2022-11-13T08:25:32.049Z,2.67
2022-11-13T08:28:18.392Z,2.88
2022-11-13T08:31:05.326Z,2.65
2022-11-13T08:33:51.824Z,5.25
2022-11-13T08:36:38.450Z,3.00
2022-11-13T08:39:24.963Z,3.88
2022-11-13T08:42:11.600Z,2.55
2022-11-13T08:44:58.392Z,3.50
2022-11-13T08:47:44.589Z,3.00
2022-11-13T08:50:32.410Z,3.75
2022-11-13T08:53:18.991Z,3.30
2022-11-13T08:56:05.456Z,3.92
2022-11-13T08:58:52.142Z,7.40
2022-11-13T09:01:38.435Z,12.23
2022-11-13T09:04:26.069Z,9.00
2022-11-13T09:07:12.784Z,12.48
2022-11-13T09:09:59.361Z,10.48
2022-11-13T09:12:46.207Z,6.60
2022-11-13T09:15:33.086Z,10.20
2022-11-13T09:18:19.684Z,17.13
2022-11-13T09:21:06.102Z,10.73
2022-11-13T09:23:52.595Z,7.93
2022-11-13T09:26:39.207Z,9.90
2022-11-13T09:29:27.424Z,12.02
2022-11-13T09:32:13.861Z,14.88
2022-11-13T09:35:02.459Z,6.43
2022-11-13T09:37:53.108Z,11.25
2022-11-13T09:40:44.519Z,10.05
2022-11-13T09:43:59.835Z,10.57
2022-11-13T09:47:09.488Z,9.73
2022-11-13T09:50:22.578Z,6.07
2022-11-13T09:53:12.190Z,6.85
2022-11-13T09:56:13.617Z,6.20
2022-11-13T09:59:16.952Z,11.38
2022-11-13T10:02:22.007Z,8.63
2022-11-13T10:05:34.925Z,6.50
2022-11-13T10:08:26.148Z,4.65
2022-11-13T10:11:18.845Z,11.13
2022-11-13T10:14:27.077Z,6.63
2022-11-13T10:17:21.797Z,6.72
2022-11-13T10:20:40.480Z,6.83
2022-11-13T10:23:32.757Z,10.10
2022-11-13T10:26:21.736Z,8.88
2022-11-13T10:29:15.938Z,5.63
2022-11-13T10:32:27.081Z,6.45
2022-11-13T10:35:19.855Z,9.77
2022-11-13T10:38:40.002Z,5.07
2022-11-13T10:41:26.126Z,6.93
2022-11-13T10:44:29.524Z,6.82
2022-11-13T10:47:42.540Z,7.22
2022-11-13T10:50:31.294Z,7.57
2022-11-13T10:53:19.155Z,9.45
2022-11-13T10:56:21.895Z,10.27
2022-11-13T10:59:19.412Z,7.53
2022-11-13T11:02:22.090Z,8.05
2022-11-13T11:05:21.904Z,10.75
2022-11-13T11:08:10.636Z,10.20
2022-11-13T11:11:18.143Z,19.63
2022-11-13T11:14:34.522Z,11.18
2022-11-13T11:17:27.706Z,18.67
2022-11-13T11:20:47.248Z,9.15
2022-11-13T11:24:03.618Z,16.85
2022-11-13T11:27:10.505Z,13.48
2022-11-13T11:30:18.195Z,9.88
2022-11-13T11:33:13.530Z,12.82
2022-11-13T11:39:17.205Z,13.48
2022-11-13T11:42:41.144Z,9.68
2022-11-13T11:45:31.381Z,15.60
2022-11-13T11:48:20.730Z,11.65
2022-11-13T11:51:26.135Z,8.73
2022-11-13T11:54:19.803Z,13.52
2022-11-13T11:57:56.117Z,11.13
2022-11-13T12:00:52.467Z,15.60
2022-11-13T12:03:55.361Z,18.63
2022-11-13T12:07:03.234Z,15.00
2022-11-13T12:10:26.074Z,13.80
2022-11-13T12:13:23.184Z,15.65
2022-11-13T12:16:23.658Z,27.90
2022-11-13T12:19:30.807Z,26.42
2022-11-13T12:22:43.989Z,23.80
2022-11-13T12:25:42.379Z,22.42
2022-11-13T12:28:40.789Z,26.85
2022-11-13T12:31:49.043Z,26.38
2022-11-13T12:34:47.538Z,24.67
2022-11-13T12:37:57.840Z,25.13
2022-11-13T12:41:02.482Z,24.40
2022-11-13T12:44:14.140Z,26.08
2022-11-13T12:47:02.483Z,30.60
2022-11-13T12:50:00.284Z,25.52
2022-11-13T12:52:57.298Z,26.48
2022-11-13T12:55:43.706Z,21.25
2022-11-13T12:58:32.596Z,23.60
2022-11-13T13:01:21.301Z,24.23
2022-11-13T13:04:42.212Z,24.25
2022-11-13T13:08:05.562Z,33.30
2022-11-13T13:11:19.956Z,51.47
2022-11-13T13:14:18.445Z,57.25
2022-11-13T13:17:15.375Z,48.70
2022-11-13T13:20:07.206Z,78.72
2022-11-13T13:23:04.836Z,67.65
2022-11-13T13:26:03.881Z,79.32
2022-11-13T13:28:55.844Z,79.82
2022-11-13T13:32:02.267Z,88.80
2022-11-13T13:35:06.764Z,111.65
2022-11-13T13:38:37.304Z,165.70
2022-11-13T13:42:19.057Z,157.75
2022-11-13T13:45:36.482Z,155.05
2022-11-13T13:48:25.447Z,158.35
2022-11-13T13:51:21.739Z,145.15
2022-11-13T13:54:09.881Z,140.65
2022-11-13T13:56:57.830Z,139.82
2022-11-13T13:59:45.668Z,140.02
2022-11-13T14:02:32.097Z,139.15
2022-11-13T14:05:32.403Z,132.25
2022-11-13T14:08:20.860Z,120.15
2022-11-13T14:11:22.290Z,114.50
2022-11-13T14:14:22.499Z,116.13
2022-11-13T14:17:11.011Z,115.68
2022-11-13T14:20:03.574Z,105.47
2022-11-13T14:22:55.365Z,104.38
2022-11-13T14:25:43.392Z,100.80
2022-11-13T14:28:56.909Z,102.38
2022-11-13T14:31:43.200Z,88.18
2022-11-13T14:34:31.119Z,87.80
2022-11-13T14:37:27.080Z,99.22
2022-11-13T14:40:35.875Z,80.78
2022-11-13T14:43:29.831Z,78.22
2022-11-13T14:46:45.584Z,72.97
2022-11-13T14:49:34.826Z,88.60
2022-11-13T14:52:28.734Z,75.55
2022-11-13T14:55:27.424Z,74.57
2022-11-13T14:58:15.316Z,63.53
2022-11-13T15:01:17.712Z,56.25
2022-11-13T15:04:04.574Z,68.97
2022-11-13T15:06:56.073Z,68.65
2022-11-13T15:09:42.898Z,50.05
2022-11-13T15:12:29.346Z,60.08
2022-11-13T15:15:19.375Z,62.08
2022-11-13T15:18:06.781Z,44.58
2022-11-13T15:20:53.073Z,42.65
2022-11-13T15:23:39.207Z,47.28
2022-11-13T15:26:25.960Z,41.78
2022-11-13T15:29:12.530Z,45.30
2022-11-13T15:31:59.252Z,39.67
2022-11-13T15:34:45.327Z,43.53
2022-11-13T15:37:31.632Z,43.08
2022-11-13T15:40:18.376Z,39.95
2022-11-13T15:43:06.509Z,28.13
2022-11-13T15:45:52.899Z,38.03
2022-11-13T15:48:39.464Z,41.20
2022-11-13T15:51:41.548Z,31.17
2022-11-13T15:54:32.077Z,38.72
2022-11-13T15:57:24.034Z,31.30
2022-11-13T16:00:25.362Z,32.45
2022-11-13T16:03:12.659Z,30.92
2022-11-13T16:06:01.831Z,29.42
2022-11-13T16:08:48.534Z,29.77
2022-11-13T16:11:35.797Z,31.55
2022-11-13T16:14:25.087Z,28.67
2022-11-13T16:17:20.437Z,43.00
2022-11-13T16:20:10.479Z,27.65
2022-11-13T16:22:57.110Z,27.88
2022-11-13T16:25:45.961Z,25.73
2022-11-13T16:28:41.941Z,23.42
2022-11-13T16:31:38.859Z,25.90
2022-11-13T16:34:25.450Z,25.60
2022-11-13T16:37:21.421Z,19.70
2022-11-13T16:40:23.723Z,21.77
2022-11-13T16:43:10.968Z,26.10
2022-11-13T16:46:00.596Z,25.17
2022-11-13T16:48:48.141Z,19.75
2022-11-13T16:51:34.468Z,25.45
2022-11-13T16:54:21.040Z,20.83
2022-11-13T16:57:09.493Z,25.27
2022-11-13T16:59:55.840Z,21.70
2022-11-13T17:02:42.470Z,24.23
2022-11-13T17:05:28.877Z,29.65
2022-11-13T17:08:15.306Z,20.05
2022-11-13T17:11:01.676Z,23.00
2022-11-13T17:13:55.241Z,18.52
2022-11-13T17:16:41.814Z,20.27
2022-11-13T17:19:28.488Z,19.13
2022-11-13T17:22:17.175Z,22.23
2022-11-13T17:25:03.739Z,22.67
2022-11-13T17:27:50.084Z,18.67
2022-11-13T17:30:36.645Z,26.73
2022-11-13T17:33:22.982Z,18.00
2022-11-13T17:36:10.467Z,22.55
2022-11-13T17:38:56.778Z,28.60
2022-11-13T17:41:43.178Z,19.70
2022-11-13T17:44:29.873Z,34.95
2022-11-13T17:47:16.202Z,18.88
2022-11-13T17:50:07.297Z,26.13
2022-11-13T17:52:54.007Z,25.65
2022-11-13T17:55:40.642Z,21.27
2022-11-13T17:58:27.702Z,24.98
2022-11-13T18:01:22.297Z,22.88
2022-11-13T18:04:08.551Z,26.42
2022-11-13T18:06:55.026Z,23.80
2022-11-13T18:09:42.004Z,42.63
2022-11-13T18:12:28.970Z,40.22
2022-11-13T18:15:15.700Z,58.38
2022-11-13T18:18:02.299Z,46.22
2022-11-13T18:20:48.460Z,47.15
2022-11-13T18:23:35.000Z,42.85
2022-11-13T18:26:21.425Z,53.60
2022-11-13T18:29:08.158Z,51.25
2022-11-13T18:31:54.714Z,46.38
2022-11-13T18:34:41.330Z,45.08
2022-11-13T18:37:27.685Z,44.17
2022-11-13T18:40:13.960Z,42.45
2022-11-13T18:43:00.941Z,42.72
2022-11-13T18:45:57.259Z,43.45
2022-11-13T18:48:44.680Z,33.50
2022-11-13T18:51:35.716Z,35.03
2022-11-13T18:54:22.103Z,35.35
2022-11-13T18:57:08.323Z,36.95
2022-11-13T18:59:55.036Z,39.95
2022-11-13T19:02:41.869Z,34.33
2022-11-13T19:05:28.150Z,28.60
2022-11-13T19:08:14.899Z,29.23
2022-11-13T19:11:06.009Z,27.40
2022-11-13T19:13:52.583Z,31.58
2022-11-13T19:16:39.960Z,29.83
2022-11-13T19:19:26.465Z,30.52
2022-11-13T19:22:12.876Z,26.23
2022-11-13T19:24:59.305Z,28.73
2022-11-13T19:27:45.884Z,25.48
2022-11-13T19:30:32.053Z,29.10
2022-11-13T19:33:18.791Z,23.83
2022-11-13T19:36:13.582Z,25.25
2022-11-13T19:39:00.336Z,23.20
2022-11-13T19:41:47.529Z,21.88
2022-11-13T19:44:34.890Z,25.25
2022-11-13T19:47:21.224Z,19.73
2022-11-13T19:50:08.140Z,23.38
2022-11-13T19:52:54.530Z,26.65
2022-11-13T19:55:41.158Z,29.73
2022-11-13T19:58:29.590Z,22.13
2022-11-13T20:01:21.986Z,32.67
2022-11-13T20:04:09.546Z,28.60
2022-11-13T20:06:56.162Z,23.52
2022-11-13T20:09:42.598Z,30.40
2022-11-13T20:12:29.991Z,26.90
2022-11-13T20:15:16.095Z,20.40
2022-11-13T20:18:02.871Z,28.60
2022-11-13T20:20:54.396Z,33.28
2022-11-13T20:23:41.463Z,44.85
2022-11-13T20:26:28.420Z,33.25
2022-11-13T20:29:15.043Z,28.20
2022-11-13T20:32:02.035Z,33.95
2022-11-13T20:34:48.508Z,71.90
2022-11-13T20:37:35.364Z,48.28
2022-11-13T20:40:21.463Z,39.30
2022-11-13T20:43:07.903Z,35.38
2022-11-13T20:46:03.291Z,45.78
2022-11-13T20:51:36.719Z,33.25
2022-11-13T20:54:23.079Z,33.85
2022-11-13T20:57:09.655Z,34.20
2022-11-13T20:59:58.547Z,23.48
2022-11-13T21:02:44.842Z,31.95
2022-11-13T21:05:31.292Z,36.58
2022-11-13T21:08:17.623Z,32.45
2022-11-13T21:11:06.291Z,27.77
2022-11-13T21:13:55.546Z,30.48
2022-11-13T21:16:42.333Z,33.10
2022-11-13T21:19:28.871Z,34.10
2022-11-13T21:22:14.857Z,31.35
2022-11-13T21:25:01.503Z,30.80
2022-11-13T21:27:47.797Z,30.98
2022-11-13T21:30:34.589Z,22.25
2022-11-13T21:33:21.013Z,25.25
2022-11-13T21:36:13.357Z,20.35
2022-11-13T21:38:59.628Z,24.15
2022-11-13T21:41:45.767Z,21.40
2022-11-13T21:44:36.589Z,19.92
2022-11-13T21:47:23.083Z,20.27
2022-11-13T21:50:10.474Z,20.90
2022-11-13T21:52:58.278Z,31.02
2022-11-13T21:55:53.858Z,24.95
2022-11-13T21:58:41.929Z,30.20
2022-11-13T22:01:33.768Z,37.25
2022-11-13T22:04:24.548Z,33.08
2022-11-13T22:07:10.890Z,44.17
2022-11-13T22:09:57.131Z,44.22
2022-11-13T22:12:43.644Z,41.92
2022-11-13T22:15:29.970Z,45.80
2022-11-13T22:18:16.474Z,45.45
2022-11-13T22:21:07.606Z,43.85
2022-11-13T22:23:54.831Z,44.90
2022-11-13T22:26:45.781Z,48.05
2022-11-13T22:29:32.028Z,44.03
2022-11-13T22:32:18.650Z,47.90
2022-11-13T22:35:05.645Z,46.20
2022-11-13T22:37:52.484Z,41.55
2022-11-13T22:40:39.202Z,43.78
2022-11-13T22:43:25.653Z,42.15
2022-11-13T22:46:13.861Z,38.97
2022-11-13T22:49:05.020Z,41.70
2022-11-13T22:51:51.597Z,38.25
2022-11-13T22:54:37.709Z,42.00
2022-11-13T22:57:24.134Z,31.92
2022-11-13T23:00:11.909Z,34.17
2022-11-13T23:03:01.100Z,35.72
2022-11-13T23:05:47.697Z,31.60
2022-11-13T23:08:41.381Z,30.02
2022-11-13T23:11:29.416Z,33.83
2022-11-13T23:14:18.121Z,31.92
2022-11-13T23:17:04.737Z,25.42
2022-11-13T23:19:51.035Z,31.23
2022-11-13T23:22:37.560Z,28.95
2022-11-13T23:25:24.177Z,28.42
2022-11-13T23:28:11.696Z,26.40
2022-11-13T23:30:58.067Z,23.27
2022-11-13T23:33:44.891Z,28.63
2022-11-13T23:36:31.690Z,23.05
2022-11-13T23:39:18.163Z,21.77
2022-11-13T23:42:04.737Z,23.63
2022-11-13T23:44:51.205Z,22.00
2022-11-13T23:47:37.874Z,19.58
2022-11-13T23:50:24.283Z,20.33
2022-11-13T23:53:11.003Z,19.38
2022-11-13T23:55:57.509Z,16.77
2022-11-13T23:58:44.339Z,18.77
